sensor_id;sensor_type;location;lat;lon;timestamp;P1;durP1;ratioP1;P2;durP2;ratioP2
17832;SDS011;9041;49.718;21.798;2022-11-15T00:01:33;31.17;;;13.50;;
17832;SDS011;9041;49.718;21.798;2022-11-15T00:04:02;29.73;;;13.23;;
17832;SDS011;9041;49.718;21.798;2022-11-15T00:06:28;33.77;;;12.73;;
17832;SDS011;9041;49.718;21.798;2022-11-15T00:08:57;29.90;;;13.30;;
17832;SDS011;9041;49.718;21.798;2022-11-15T00:11:24;29.27;;;14.60;;
17832;SDS011;9041;49.718;21.798;2022-11-15T00:13:54;23.97;;;12.37;;
17832;SDS011;9041;49.718;21.798;2022-11-15T00:16:21;24.80;;;11.37;;
17832;SDS011;9041;49.718;21.798;2022-11-15T00:18:48;25.80;;;11.57;;
17832;SDS011;9041;49.718;21.798;2022-11-15T00:21:15;23.93;;;10.80;;
17832;SDS011;9041;49.718;21.798;2022-11-15T00:23:43;27.13;;;12.77;;
17832;SDS011;9041;49.718;21.798;2022-11-15T00:26:11;22.27;;;11.40;;
17832;SDS011;9041;49.718;21.798;2022-11-15T00:28:38;30.67;;;15.30;;
17832;SDS011;9041;49.718;21.798;2022-11-15T00:31:07;28.70;;;14.27;;
17832;SDS011;9041;49.718;21.798;2022-11-15T00:33:35;24.00;;;11.50;;
17832;SDS011;9041;49.718;21.798;2022-11-15T00:36:02;26.93;;;11.40;;
17832;SDS011;9041;49.718;21.798;2022-11-15T00:38:30;24.47;;;11.73;;
17832;SDS011;9041;49.718;21.798;2022-11-15T00:40:58;23.27;;;10.93;;
17832;SDS011;9041;49.718;21.798;2022-11-15T00:43:24;24.80;;;10.47;;
17832;SDS011;9041;49.718;21.798;2022-11-15T00:45:51;27.23;;;11.53;;
17832;SDS011;9041;49.718;21.798;2022-11-15T00:48:19;22.20;;;10.97;;
17832;SDS011;9041;49.718;21.798;2022-11-15T00:50:46;27.80;;;12.80;;
17832;SDS011;9041;49.718;21.798;2022-11-15T00:53:16;47.37;;;19.10;;
17832;SDS011;9041;49.718;21.798;2022-11-15T00:55:43;50.73;;;17.77;;
17832;SDS011;9041;49.718;21.798;2022-11-15T00:58:10;56.37;;;20.13;;
17832;SDS011;9041;49.718;21.798;2022-11-15T01:00:39;36.90;;;17.20;;
17832;SDS011;9041;49.718;21.798;2022-11-15T01:03:06;36.40;;;15.93;;
17832;SDS011;9041;49.718;21.798;2022-11-15T01:05:36;39.07;;;19.23;;
17832;SDS011;9041;49.718;21.798;2022-11-15T01:08:03;41.87;;;19.93;;
17832;SDS011;9041;49.718;21.798;2022-11-15T01:10:30;60.27;;;26.70;;
17832;SDS011;9041;49.718;21.798;2022-11-15T01:12:56;47.63;;;24.47;;
17832;SDS011;9041;49.718;21.798;2022-11-15T01:15:23;46.60;;;21.30;;
17832;SDS011;9041;49.718;21.798;2022-11-15T01:17:50;44.80;;;18.50;;
17832;SDS011;9041;49.718;21.798;2022-11-15T01:20:16;37.03;;;17.70;;
17832;SDS011;9041;49.718;21.798;2022-11-15T01:22:45;41.40;;;18.23;;
17832;SDS011;9041;49.718;21.798;2022-11-15T01:25:11;33.70;;;16.00;;
17832;SDS011;9041;49.718;21.798;2022-11-15T01:27:38;34.03;;;15.97;;
17832;SDS011;9041;49.718;21.798;2022-11-15T01:30:06;30.70;;;15.33;;
17832;SDS011;9041;49.718;21.798;2022-11-15T01:32:33;35.60;;;16.50;;
17832;SDS011;9041;49.718;21.798;2022-11-15T01:35:00;30.50;;;14.30;;
17832;SDS011;9041;49.718;21.798;2022-11-15T01:37:26;34.60;;;13.53;;
17832;SDS011;9041;49.718;21.798;2022-11-15T01:39:56;32.77;;;14.97;;
17832;SDS011;9041;49.718;21.798;2022-11-15T01:42:26;29.83;;;15.57;;
17832;SDS011;9041;49.718;21.798;2022-11-15T01:44:52;33.07;;;15.77;;
17832;SDS011;9041;49.718;21.798;2022-11-15T01:47:21;32.53;;;16.93;;
17832;SDS011;9041;49.718;21.798;2022-11-15T01:49:51;41.70;;;22.70;;
17832;SDS011;9041;49.718;21.798;2022-11-15T01:52:20;39.93;;;19.30;;
17832;SDS011;9041;49.718;21.798;2022-11-15T01:54:49;39.80;;;20.10;;
17832;SDS011;9041;49.718;21.798;2022-11-15T01:57:20;31.23;;;15.37;;
17832;SDS011;9041;49.718;21.798;2022-11-15T01:59:47;33.93;;;15.47;;
17832;SDS011;9041;49.718;21.798;2022-11-15T02:02:14;27.47;;;15.13;;
17832;SDS011;9041;49.718;21.798;2022-11-15T02:04:42;30.13;;;16.23;;
17832;SDS011;9041;49.718;21.798;2022-11-15T02:07:13;34.37;;;16.53;;
17832;SDS011;9041;49.718;21.798;2022-11-15T02:09:42;25.07;;;14.20;;
17832;SDS011;9041;49.718;21.798;2022-11-15T02:12:09;23.20;;;11.87;;
17832;SDS011;9041;49.718;21.798;2022-11-15T02:14:38;26.50;;;13.47;;
17832;SDS011;9041;49.718;21.798;2022-11-15T02:17:08;27.40;;;14.00;;
17832;SDS011;9041;49.718;21.798;2022-11-15T02:22:51;25.57;;;15.67;;
17832;SDS011;9041;49.718;21.798;2022-11-15T02:25:37;30.93;;;16.57;;
17832;SDS011;9041;49.718;21.798;2022-11-15T02:30:58;38.83;;;19.40;;
17832;SDS011;9041;49.718;21.798;2022-11-15T02:33:28;29.33;;;16.30;;
17832;SDS011;9041;49.718;21.798;2022-11-15T02:36:01;32.83;;;17.13;;
17832;SDS011;9041;49.718;21.798;2022-11-15T02:38:31;24.87;;;12.30;;
17832;SDS011;9041;49.718;21.798;2022-11-15T02:41:01;27.53;;;12.93;;
17832;SDS011;9041;49.718;21.798;2022-11-15T02:43:29;25.50;;;12.60;;
17832;SDS011;9041;49.718;21.798;2022-11-15T02:46:20;23.43;;;11.90;;
17832;SDS011;9041;49.718;21.798;2022-11-15T02:49:09;20.87;;;12.17;;
17832;SDS011;9041;49.718;21.798;2022-11-15T02:51:37;26.50;;;13.90;;
17832;SDS011;9041;49.718;21.798;2022-11-15T02:54:04;29.27;;;15.37;;
17832;SDS011;9041;49.718;21.798;2022-11-15T02:56:32;31.67;;;15.53;;
17832;SDS011;9041;49.718;21.798;2022-11-15T02:59:12;26.53;;;13.00;;
17832;SDS011;9041;49.718;21.798;2022-11-15T03:01:49;21.80;;;12.30;;
17832;SDS011;9041;49.718;21.798;2022-11-15T03:04:29;19.60;;;10.53;;
17832;SDS011;9041;49.718;21.798;2022-11-15T03:07:00;21.27;;;11.07;;
17832;SDS011;9041;49.718;21.798;2022-11-15T03:09:32;24.23;;;12.07;;
17832;SDS011;9041;49.718;21.798;2022-11-15T03:12:03;20.50;;;11.23;;
17832;SDS011;9041;49.718;21.798;2022-11-15T03:14:34;28.93;;;12.20;;
17832;SDS011;9041;49.718;21.798;2022-11-15T03:17:11;27.87;;;13.00;;
17832;SDS011;9041;49.718;21.798;2022-11-15T03:19:43;24.83;;;12.17;;
17832;SDS011;9041;49.718;21.798;2022-11-15T03:22:12;25.27;;;13.13;;
17832;SDS011;9041;49.718;21.798;2022-11-15T03:24:41;25.43;;;13.80;;
17832;SDS011;9041;49.718;21.798;2022-11-15T03:27:10;30.57;;;14.30;;
17832;SDS011;9041;49.718;21.798;2022-11-15T03:29:39;25.37;;;12.20;;
17832;SDS011;9041;49.718;21.798;2022-11-15T03:32:10;22.60;;;12.40;;
17832;SDS011;9041;49.718;21.798;2022-11-15T03:34:40;25.47;;;12.67;;
17832;SDS011;9041;49.718;21.798;2022-11-15T03:37:09;27.00;;;14.30;;
17832;SDS011;9041;49.718;21.798;2022-11-15T03:39:38;30.10;;;14.40;;
17832;SDS011;9041;49.718;21.798;2022-11-15T03:42:10;26.93;;;13.63;;
17832;SDS011;9041;49.718;21.798;2022-11-15T03:44:46;25.60;;;14.63;;
17832;SDS011;9041;49.718;21.798;2022-11-15T03:47:17;30.77;;;16.13;;
17832;SDS011;9041;49.718;21.798;2022-11-15T03:49:49;28.63;;;14.43;;
17832;SDS011;9041;49.718;21.798;2022-11-15T03:52:20;28.73;;;13.60;;
17832;SDS011;9041;49.718;21.798;2022-11-15T03:54:47;26.03;;;13.40;;
17832;SDS011;9041;49.718;21.798;2022-11-15T03:57:16;26.23;;;13.30;;
17832;SDS011;9041;49.718;21.798;2022-11-15T03:59:46;22.57;;;12.10;;
17832;SDS011;9041;49.718;21.798;2022-11-15T04:02:13;23.27;;;12.93;;
17832;SDS011;9041;49.718;21.798;2022-11-15T04:04:41;22.20;;;12.63;;
17832;SDS011;9041;49.718;21.798;2022-11-15T04:07:12;26.97;;;14.80;;
17832;SDS011;9041;49.718;21.798;2022-11-15T04:09:38;25.13;;;13.20;;
17832;SDS011;9041;49.718;21.798;2022-11-15T04:12:19;33.60;;;15.90;;
17832;SDS011;9041;49.718;21.798;2022-11-15T04:14:55;28.60;;;15.60;;
17832;SDS011;9041;49.718;21.798;2022-11-15T04:17:33;29.30;;;14.60;;
17832;SDS011;9041;49.718;21.798;2022-11-15T04:20:02;136.43;;;46.47;;
17832;SDS011;9041;49.718;21.798;2022-11-15T04:22:46;30.30;;;15.50;;
17832;SDS011;9041;49.718;21.798;2022-11-15T04:25:30;34.33;;;14.87;;
17832;SDS011;9041;49.718;21.798;2022-11-15T04:27:57;27.47;;;12.83;;
17832;SDS011;9041;49.718;21.798;2022-11-15T04:30:27;26.30;;;12.57;;
17832;SDS011;9041;49.718;21.798;2022-11-15T04:32:53;21.87;;;10.83;;
17832;SDS011;9041;49.718;21.798;2022-11-15T04:35:21;21.07;;;10.60;;
17832;SDS011;9041;49.718;21.798;2022-11-15T04:37:48;18.77;;;10.33;;
17832;SDS011;9041;49.718;21.798;2022-11-15T04:40:15;25.70;;;12.00;;
17832;SDS011;9041;49.718;21.798;2022-11-15T04:42:42;25.50;;;11.10;;
17832;SDS011;9041;49.718;21.798;2022-11-15T04:45:09;19.57;;;10.03;;
17832;SDS011;9041;49.718;21.798;2022-11-15T04:47:36;19.43;;;9.43;;
17832;SDS011;9041;49.718;21.798;2022-11-15T04:50:03;106.43;;;35.60;;
17832;SDS011;9041;49.718;21.798;2022-11-15T04:52:31;40.77;;;16.87;;
17832;SDS011;9041;49.718;21.798;2022-11-15T04:54:58;39.10;;;16.00;;
17832;SDS011;9041;49.718;21.798;2022-11-15T04:57:25;19.53;;;10.13;;
17832;SDS011;9041;49.718;21.798;2022-11-15T04:59:51;17.67;;;8.87;;
17832;SDS011;9041;49.718;21.798;2022-11-15T05:02:18;18.20;;;8.63;;
17832;SDS011;9041;49.718;21.798;2022-11-15T05:04:44;17.67;;;9.40;;
17832;SDS011;9041;49.718;21.798;2022-11-15T05:07:10;17.60;;;8.90;;
17832;SDS011;9041;49.718;21.798;2022-11-15T05:09:38;32.50;;;14.57;;
17832;SDS011;9041;49.718;21.798;2022-11-15T05:12:05;20.80;;;10.70;;
17832;SDS011;9041;49.718;21.798;2022-11-15T05:14:37;21.53;;;11.07;;
17832;SDS011;9041;49.718;21.798;2022-11-15T05:17:04;24.90;;;12.47;;
17832;SDS011;9041;49.718;21.798;2022-11-15T05:19:30;28.07;;;12.13;;
17832;SDS011;9041;49.718;21.798;2022-11-15T05:21:57;29.67;;;13.73;;
17832;SDS011;9041;49.718;21.798;2022-11-15T05:24:24;35.63;;;14.37;;
17832;SDS011;9041;49.718;21.798;2022-11-15T05:26:52;30.73;;;13.20;;
17832;SDS011;9041;49.718;21.798;2022-11-15T05:29:19;38.20;;;15.73;;
17832;SDS011;9041;49.718;21.798;2022-11-15T05:31:45;34.07;;;14.87;;
17832;SDS011;9041;49.718;21.798;2022-11-15T05:34:12;38.00;;;16.57;;
17832;SDS011;9041;49.718;21.798;2022-11-15T05:36:40;36.23;;;15.90;;
17832;SDS011;9041;49.718;21.798;2022-11-15T05:39:08;37.27;;;16.57;;
17832;SDS011;9041;49.718;21.798;2022-11-15T05:41:35;40.67;;;17.27;;
17832;SDS011;9041;49.718;21.798;2022-11-15T05:44:06;34.13;;;15.80;;
17832;SDS011;9041;49.718;21.798;2022-11-15T05:46:34;41.20;;;17.80;;
17832;SDS011;9041;49.718;21.798;2022-11-15T05:49:02;36.10;;;17.83;;
17832;SDS011;9041;49.718;21.798;2022-11-15T05:51:29;35.27;;;16.70;;
17832;SDS011;9041;49.718;21.798;2022-11-15T05:53:55;38.00;;;16.53;;
17832;SDS011;9041;49.718;21.798;2022-11-15T05:56:23;45.27;;;20.57;;
17832;SDS011;9041;49.718;21.798;2022-11-15T05:58:50;41.43;;;19.33;;
17832;SDS011;9041;49.718;21.798;2022-11-15T06:01:19;38.47;;;16.93;;
17832;SDS011;9041;49.718;21.798;2022-11-15T06:03:46;39.50;;;18.73;;
17832;SDS011;9041;49.718;21.798;2022-11-15T06:06:12;32.40;;;15.63;;
17832;SDS011;9041;49.718;21.798;2022-11-15T06:08:39;40.90;;;16.90;;
17832;SDS011;9041;49.718;21.798;2022-11-15T06:11:05;39.10;;;18.47;;
17832;SDS011;9041;49.718;21.798;2022-11-15T06:13:33;39.93;;;17.67;;
17832;SDS011;9041;49.718;21.798;2022-11-15T06:15:59;38.53;;;16.50;;
17832;SDS011;9041;49.718;21.798;2022-11-15T06:18:28;40.63;;;16.47;;
17832;SDS011;9041;49.718;21.798;2022-11-15T06:20:58;39.83;;;16.33;;
17832;SDS011;9041;49.718;21.798;2022-11-15T06:23:25;43.00;;;18.70;;
17832;SDS011;9041;49.718;21.798;2022-11-15T06:25:52;41.40;;;17.27;;
17832;SDS011;9041;49.718;21.798;2022-11-15T06:28:18;54.37;;;19.30;;
17832;SDS011;9041;49.718;21.798;2022-11-15T06:30:45;49.00;;;21.33;;
17832;SDS011;9041;49.718;21.798;2022-11-15T06:33:11;58.93;;;22.93;;
17832;SDS011;9041;49.718;21.798;2022-11-15T06:35:39;50.73;;;21.80;;
17832;SDS011;9041;49.718;21.798;2022-11-15T06:38:07;42.13;;;19.27;;
17832;SDS011;9041;49.718;21.798;2022-11-15T06:40:35;41.17;;;17.87;;
17832;SDS011;9041;49.718;21.798;2022-11-15T06:43:02;45.50;;;19.93;;
17832;SDS011;9041;49.718;21.798;2022-11-15T06:45:29;52.60;;;21.60;;
17832;SDS011;9041;49.718;21.798;2022-11-15T06:47:56;45.10;;;20.93;;
17832;SDS011;9041;49.718;21.798;2022-11-15T06:50:22;49.63;;;18.87;;
17832;SDS011;9041;49.718;21.798;2022-11-15T06:52:55;50.60;;;21.37;;
17832;SDS011;9041;49.718;21.798;2022-11-15T06:55:24;40.23;;;17.67;;
17832;SDS011;9041;49.718;21.798;2022-11-15T06:57:51;273.50;;;58.30;;
17832;SDS011;9041;49.718;21.798;2022-11-15T07:00:20;61.63;;;23.87;;
17832;SDS011;9041;49.718;21.798;2022-11-15T07:02:48;75.33;;;27.73;;
17832;SDS011;9041;49.718;21.798;2022-11-15T07:05:16;68.97;;;26.77;;
17832;SDS011;9041;49.718;21.798;2022-11-15T07:07:43;152.40;;;46.53;;
17832;SDS011;9041;49.718;21.798;2022-11-15T07:10:13;44.60;;;19.70;;
17832;SDS011;9041;49.718;21.798;2022-11-15T07:12:40;41.03;;;18.93;;
17832;SDS011;9041;49.718;21.798;2022-11-15T07:15:08;62.90;;;25.10;;
17832;SDS011;9041;49.718;21.798;2022-11-15T07:17:35;42.97;;;18.67;;
17832;SDS011;9041;49.718;21.798;2022-11-15T07:20:02;62.87;;;28.77;;
17832;SDS011;9041;49.718;21.798;2022-11-15T07:22:29;42.77;;;20.17;;
17832;SDS011;9041;49.718;21.798;2022-11-15T07:24:56;45.00;;;22.03;;
17832;SDS011;9041;49.718;21.798;2022-11-15T07:27:24;43.00;;;18.07;;
17832;SDS011;9041;49.718;21.798;2022-11-15T07:29:50;43.27;;;19.83;;
17832;SDS011;9041;49.718;21.798;2022-11-15T07:32:17;48.17;;;22.83;;
17832;SDS011;9041;49.718;21.798;2022-11-15T07:34:44;42.00;;;19.57;;
17832;SDS011;9041;49.718;21.798;2022-11-15T07:37:11;37.23;;;17.20;;
17832;SDS011;9041;49.718;21.798;2022-11-15T07:39:38;34.30;;;17.00;;
17832;SDS011;9041;49.718;21.798;2022-11-15T07:42:05;37.87;;;17.07;;
17832;SDS011;9041;49.718;21.798;2022-11-15T07:44:50;35.77;;;16.33;;
17832;SDS011;9041;49.718;21.798;2022-11-15T07:47:17;35.60;;;16.53;;
17832;SDS011;9041;49.718;21.798;2022-11-15T07:49:43;36.43;;;16.47;;
17832;SDS011;9041;49.718;21.798;2022-11-15T07:52:11;125.43;;;34.80;;
17832;SDS011;9041;49.718;21.798;2022-11-15T07:54:37;65.50;;;22.93;;
17832;SDS011;9041;49.718;21.798;2022-11-15T07:57:04;43.80;;;18.87;;
17832;SDS011;9041;49.718;21.798;2022-11-15T07:59:32;34.40;;;16.40;;
17832;SDS011;9041;49.718;21.798;2022-11-15T08:02:01;43.70;;;18.10;;
17832;SDS011;9041;49.718;21.798;2022-11-15T08:04:28;48.30;;;19.87;;
17832;SDS011;9041;49.718;21.798;2022-11-15T08:06:55;65.20;;;26.43;;
17832;SDS011;9041;49.718;21.798;2022-11-15T08:09:22;75.67;;;27.90;;
17832;SDS011;9041;49.718;21.798;2022-11-15T08:11:48;35.97;;;15.93;;
17832;SDS011;9041;49.718;21.798;2022-11-15T08:14:15;19.60;;;9.90;;
17832;SDS011;9041;49.718;21.798;2022-11-15T08:16:42;23.53;;;11.80;;
17832;SDS011;9041;49.718;21.798;2022-11-15T08:19:10;23.87;;;11.10;;
17832;SDS011;9041;49.718;21.798;2022-11-15T08:21:36;20.83;;;11.00;;
17832;SDS011;9041;49.718;21.798;2022-11-15T08:24:03;20.87;;;10.43;;
17832;SDS011;9041;49.718;21.798;2022-11-15T08:26:30;26.27;;;13.10;;
17832;SDS011;9041;49.718;21.798;2022-11-15T08:28:57;33.50;;;15.77;;
17832;SDS011;9041;49.718;21.798;2022-11-15T08:31:26;29.07;;;13.47;;
17832;SDS011;9041;49.718;21.798;2022-11-15T08:33:52;16.10;;;9.03;;
17832;SDS011;9041;49.718;21.798;2022-11-15T08:36:20;20.43;;;9.10;;
17832;SDS011;9041;49.718;21.798;2022-11-15T08:38:47;18.40;;;8.90;;
17832;SDS011;9041;49.718;21.798;2022-11-15T08:41:16;14.15;;;7.90;;
17832;SDS011;9041;49.718;21.798;2022-11-15T08:43:47;14.57;;;7.55;;
17832;SDS011;9041;49.718;21.798;2022-11-15T08:46:13;15.65;;;8.25;;
17832;SDS011;9041;49.718;21.798;2022-11-15T08:48:40;16.23;;;7.03;;
17832;SDS011;9041;49.718;21.798;2022-11-15T08:51:09;13.63;;;7.63;;
17832;SDS011;9041;49.718;21.798;2022-11-15T08:53:40;12.40;;;6.80;;
17832;SDS011;9041;49.718;21.798;2022-11-15T08:56:07;15.68;;;6.63;;
17832;SDS011;9041;49.718;21.798;2022-11-15T08:58:34;12.82;;;6.95;;
17832;SDS011;9041;49.718;21.798;2022-11-15T09:01:00;11.88;;;6.45;;
17832;SDS011;9041;49.718;21.798;2022-11-15T09:03:27;13.50;;;7.22;;
17832;SDS011;9041;49.718;21.798;2022-11-15T09:05:57;16.48;;;7.18;;
17832;SDS011;9041;49.718;21.798;2022-11-15T09:08:32;14.90;;;7.57;;
17832;SDS011;9041;49.718;21.798;2022-11-15T09:11:02;11.18;;;7.03;;
17832;SDS011;9041;49.718;21.798;2022-11-15T09:13:29;17.40;;;8.57;;
17832;SDS011;9041;49.718;21.798;2022-11-15T09:15:56;14.15;;;7.60;;
17832;SDS011;9041;49.718;21.798;2022-11-15T09:18:24;15.98;;;7.57;;
17832;SDS011;9041;49.718;21.798;2022-11-15T09:20:50;14.98;;;6.78;;
17832;SDS011;9041;49.718;21.798;2022-11-15T09:23:17;22.30;;;10.05;;
17832;SDS011;9041;49.718;21.798;2022-11-15T09:25:43;14.43;;;7.65;;
17832;SDS011;9041;49.718;21.798;2022-11-15T09:28:11;16.20;;;7.90;;
17832;SDS011;9041;49.718;21.798;2022-11-15T09:30:38;27.65;;;14.35;;
17832;SDS011;9041;49.718;21.798;2022-11-15T09:33:11;13.75;;;8.00;;
17832;SDS011;9041;49.718;21.798;2022-11-15T09:35:39;14.23;;;8.15;;
17832;SDS011;9041;49.718;21.798;2022-11-15T09:38:06;14.32;;;7.50;;
17832;SDS011;9041;49.718;21.798;2022-11-15T09:40:32;15.52;;;7.68;;
17832;SDS011;9041;49.718;21.798;2022-11-15T09:43:11;13.82;;;7.05;;
17832;SDS011;9041;49.718;21.798;2022-11-15T09:46:04;18.23;;;9.27;;
17832;SDS011;9041;49.718;21.798;2022-11-15T09:51:25;16.10;;;8.60;;
17832;SDS011;9041;49.718;21.798;2022-11-15T09:54:00;18.45;;;9.13;;
17832;SDS011;9041;49.718;21.798;2022-11-15T09:56:35;13.82;;;7.47;;
17832;SDS011;9041;49.718;21.798;2022-11-15T09:59:13;34.88;;;17.27;;
17832;SDS011;9041;49.718;21.798;2022-11-15T10:01:49;91.22;;;43.40;;
17832;SDS011;9041;49.718;21.798;2022-11-15T10:04:21;60.08;;;26.42;;
17832;SDS011;9041;49.718;21.798;2022-11-15T10:06:51;26.85;;;11.60;;
17832;SDS011;9041;49.718;21.798;2022-11-15T10:09:21;21.63;;;9.60;;
17832;SDS011;9041;49.718;21.798;2022-11-15T10:11:50;18.63;;;8.93;;
17832;SDS011;9041;49.718;21.798;2022-11-15T10:14:20;14.10;;;7.30;;
17832;SDS011;9041;49.718;21.798;2022-11-15T10:17:00;25.50;;;11.85;;
17832;SDS011;9041;49.718;21.798;2022-11-15T10:19:35;17.88;;;9.18;;
17832;SDS011;9041;49.718;21.798;2022-11-15T10:22:10;19.50;;;8.57;;
17832;SDS011;9041;49.718;21.798;2022-11-15T10:24:43;15.75;;;7.32;;
17832;SDS011;9041;49.718;21.798;2022-11-15T10:27:11;26.52;;;11.18;;
17832;SDS011;9041;49.718;21.798;2022-11-15T10:29:45;16.02;;;7.53;;
17832;SDS011;9041;49.718;21.798;2022-11-15T10:32:13;17.98;;;7.65;;
17832;SDS011;9041;49.718;21.798;2022-11-15T10:34:41;23.10;;;9.10;;
17832;SDS011;9041;49.718;21.798;2022-11-15T10:37:08;15.98;;;7.25;;
17832;SDS011;9041;49.718;21.798;2022-11-15T10:39:35;13.32;;;6.45;;
17832;SDS011;9041;49.718;21.798;2022-11-15T10:42:14;12.48;;;6.07;;
17832;SDS011;9041;49.718;21.798;2022-11-15T10:44:50;14.57;;;6.93;;
17832;SDS011;9041;49.718;21.798;2022-11-15T10:47:21;10.18;;;5.80;;
17832;SDS011;9041;49.718;21.798;2022-11-15T10:49:54;13.38;;;5.20;;
17832;SDS011;9041;49.718;21.798;2022-11-15T10:52:22;13.25;;;6.45;;
17832;SDS011;9041;49.718;21.798;2022-11-15T10:55:00;13.55;;;6.50;;
17832;SDS011;9041;49.718;21.798;2022-11-15T10:57:31;11.00;;;6.57;;
17832;SDS011;9041;49.718;21.798;2022-11-15T11:00:00;13.07;;;6.65;;
17832;SDS011;9041;49.718;21.798;2022-11-15T11:02:30;14.40;;;6.20;;
17832;SDS011;9041;49.718;21.798;2022-11-15T11:04:59;13.80;;;7.10;;
17832;SDS011;9041;49.718;21.798;2022-11-15T11:07:27;10.43;;;5.57;;
17832;SDS011;9041;49.718;21.798;2022-11-15T11:09:58;11.85;;;6.00;;
17832;SDS011;9041;49.718;21.798;2022-11-15T11:12:27;17.27;;;7.40;;
17832;SDS011;9041;49.718;21.798;2022-11-15T11:14:57;11.73;;;6.25;;
17832;SDS011;9041;49.718;21.798;2022-11-15T11:17:28;11.90;;;6.45;;
17832;SDS011;9041;49.718;21.798;2022-11-15T11:20:02;10.80;;;6.13;;
17832;SDS011;9041;49.718;21.798;2022-11-15T11:22:32;16.15;;;6.28;;
17832;SDS011;9041;49.718;21.798;2022-11-15T11:25:19;11.57;;;5.65;;
17832;SDS011;9041;49.718;21.798;2022-11-15T11:27:54;13.05;;;5.65;;
17832;SDS011;9041;49.718;21.798;2022-11-15T11:30:30;10.50;;;5.88;;
17832;SDS011;9041;49.718;21.798;2022-11-15T11:33:05;12.32;;;6.20;;
17832;SDS011;9041;49.718;21.798;2022-11-15T11:35:39;8.05;;;5.25;;
17832;SDS011;9041;49.718;21.798;2022-11-15T11:38:21;9.18;;;5.45;;
17832;SDS011;9041;49.718;21.798;2022-11-15T11:40:59;12.25;;;6.18;;
17832;SDS011;9041;49.718;21.798;2022-11-15T11:43:36;10.40;;;5.00;;
17832;SDS011;9041;49.718;21.798;2022-11-15T11:49:01;8.85;;;4.68;;
17832;SDS011;9041;49.718;21.798;2022-11-15T11:51:32;9.80;;;5.28;;
17832;SDS011;9041;49.718;21.798;2022-11-15T11:54:03;8.35;;;5.28;;
17832;SDS011;9041;49.718;21.798;2022-11-15T11:56:32;10.70;;;5.40;;
17832;SDS011;9041;49.718;21.798;2022-11-15T11:59:02;12.50;;;5.68;;
17832;SDS011;9041;49.718;21.798;2022-11-15T12:01:34;11.88;;;5.20;;
17832;SDS011;9041;49.718;21.798;2022-11-15T12:04:05;11.15;;;5.38;;
17832;SDS011;9041;49.718;21.798;2022-11-15T12:06:42;15.70;;;5.53;;
17832;SDS011;9041;49.718;21.798;2022-11-15T12:09:14;14.40;;;6.60;;
17832;SDS011;9041;49.718;21.798;2022-11-15T12:11:47;11.75;;;5.93;;
17832;SDS011;9041;49.718;21.798;2022-11-15T12:14:20;11.38;;;5.70;;
17832;SDS011;9041;49.718;21.798;2022-11-15T12:16:51;9.63;;;5.57;;
17832;SDS011;9041;49.718;21.798;2022-11-15T12:19:19;13.45;;;6.03;;
17832;SDS011;9041;49.718;21.798;2022-11-15T12:21:47;10.82;;;5.57;;
17832;SDS011;9041;49.718;21.798;2022-11-15T12:24:17;9.82;;;5.65;;
17832;SDS011;9041;49.718;21.798;2022-11-15T12:26:48;9.68;;;5.25;;
17832;SDS011;9041;49.718;21.798;2022-11-15T12:29:19;11.57;;;5.75;;
17832;SDS011;9041;49.718;21.798;2022-11-15T12:31:55;10.52;;;5.72;;
17832;SDS011;9041;49.718;21.798;2022-11-15T12:34:39;10.27;;;5.50;;
17832;SDS011;9041;49.718;21.798;2022-11-15T12:40:21;15.20;;;6.82;;
17832;SDS011;9041;49.718;21.798;2022-11-15T12:46:05;9.63;;;4.53;;
17832;SDS011;9041;49.718;21.798;2022-11-15T12:54:52;8.60;;;4.40;;
17832;SDS011;9041;49.718;21.798;2022-11-15T12:57:28;14.32;;;6.70;;
17832;SDS011;9041;49.718;21.798;2022-11-15T12:59:57;9.55;;;5.57;;
17832;SDS011;9041;49.718;21.798;2022-11-15T13:02:27;10.80;;;5.72;;
17832;SDS011;9041;49.718;21.798;2022-11-15T13:08:06;9.68;;;4.70;;
17832;SDS011;9041;49.718;21.798;2022-11-15T13:10:34;9.65;;;5.18;;
17832;SDS011;9041;49.718;21.798;2022-11-15T13:13:02;9.75;;;5.13;;
17832;SDS011;9041;49.718;21.798;2022-11-15T13:18:29;9.35;;;4.78;;
17832;SDS011;9041;49.718;21.798;2022-11-15T13:21:21;10.68;;;5.35;;
17832;SDS011;9041;49.718;21.798;2022-11-15T13:24:10;14.88;;;5.65;;
17832;SDS011;9041;49.718;21.798;2022-11-15T13:26:40;12.00;;;5.65;;
17832;SDS011;9041;49.718;21.798;2022-11-15T13:29:14;10.65;;;5.40;;
17832;SDS011;9041;49.718;21.798;2022-11-15T13:31:42;8.68;;;5.50;;
17832;SDS011;9041;49.718;21.798;2022-11-15T13:34:19;11.48;;;5.55;;
17832;SDS011;9041;49.718;21.798;2022-11-15T13:36:51;11.55;;;5.80;;
17832;SDS011;9041;49.718;21.798;2022-11-15T13:39:25;14.63;;;6.10;;
17832;SDS011;9041;49.718;21.798;2022-11-15T13:41:54;12.70;;;6.18;;
17832;SDS011;9041;49.718;21.798;2022-11-15T13:44:21;13.45;;;5.47;;
17832;SDS011;9041;49.718;21.798;2022-11-15T13:46:48;11.80;;;5.43;;
17832;SDS011;9041;49.718;21.798;2022-11-15T13:49:15;14.07;;;6.07;;
17832;SDS011;9041;49.718;21.798;2022-11-15T13:51:44;12.25;;;6.45;;
17832;SDS011;9041;49.718;21.798;2022-11-15T13:54:20;9.18;;;5.25;;
17832;SDS011;9041;49.718;21.798;2022-11-15T13:56:49;13.25;;;5.82;;
17832;SDS011;9041;49.718;21.798;2022-11-15T13:59:23;10.18;;;5.88;;
17832;SDS011;9041;49.718;21.798;2022-11-15T14:01:51;11.68;;;5.60;;
17832;SDS011;9041;49.718;21.798;2022-11-15T14:04:18;10.45;;;5.57;;
17832;SDS011;9041;49.718;21.798;2022-11-15T14:06:47;15.32;;;6.82;;
17832;SDS011;9041;49.718;21.798;2022-11-15T14:09:22;14.48;;;6.95;;
17832;SDS011;9041;49.718;21.798;2022-11-15T14:11:56;21.63;;;10.50;;
17832;SDS011;9041;49.718;21.798;2022-11-15T14:14:23;29.92;;;12.30;;
17832;SDS011;9041;49.718;21.798;2022-11-15T14:16:51;16.58;;;8.02;;
17832;SDS011;9041;49.718;21.798;2022-11-15T14:19:34;19.33;;;7.40;;
17832;SDS011;9041;49.718;21.798;2022-11-15T14:22:09;16.77;;;7.25;;
17832;SDS011;9041;49.718;21.798;2022-11-15T14:24:37;45.22;;;16.52;;
17832;SDS011;9041;49.718;21.798;2022-11-15T14:27:23;63.95;;;20.73;;
17832;SDS011;9041;49.718;21.798;2022-11-15T14:29:50;27.15;;;11.20;;
17832;SDS011;9041;49.718;21.798;2022-11-15T14:32:17;19.58;;;8.63;;
17832;SDS011;9041;49.718;21.798;2022-11-15T14:34:54;15.07;;;7.00;;
17832;SDS011;9041;49.718;21.798;2022-11-15T14:37:22;19.17;;;8.23;;
17832;SDS011;9041;49.718;21.798;2022-11-15T14:39:49;15.50;;;8.00;;
17832;SDS011;9041;49.718;21.798;2022-11-15T14:42:16;26.45;;;10.88;;
17832;SDS011;9041;49.718;21.798;2022-11-15T14:44:45;30.50;;;12.70;;
17832;SDS011;9041;49.718;21.798;2022-11-15T14:47:12;46.30;;;16.77;;
17832;SDS011;9041;49.718;21.798;2022-11-15T14:49:39;40.15;;;16.58;;
17832;SDS011;9041;49.718;21.798;2022-11-15T14:52:22;32.58;;;14.25;;
17832;SDS011;9041;49.718;21.798;2022-11-15T14:54:52;27.85;;;13.23;;
17832;SDS011;9041;49.718;21.798;2022-11-15T14:57:19;28.92;;;11.57;;
17832;SDS011;9041;49.718;21.798;2022-11-15T14:59:47;28.98;;;12.10;;
17832;SDS011;9041;49.718;21.798;2022-11-15T15:02:15;23.45;;;10.82;;
17832;SDS011;9041;49.718;21.798;2022-11-15T15:04:45;27.13;;;11.48;;
17832;SDS011;9041;49.718;21.798;2022-11-15T15:07:11;24.73;;;11.15;;
17832;SDS011;9041;49.718;21.798;2022-11-15T15:09:38;24.92;;;10.40;;
17832;SDS011;9041;49.718;21.798;2022-11-15T15:12:05;28.23;;;10.65;;